Time;durP1;ratioP1;P1;durP2;ratioP2;P2;SDS_P1;SDS_P2;PMS_P1;PMS_P2;Temp;Humidity;BMP_temperature;BMP_pressure;BME280_temperature;BME280_humidity;BME280_pressure;Samples;Min_cycle;Max_cycle;Signal;HPM_P1;HPM_P2
2022/03/08 00:01:20;;;;;;;15.32;12.93;;;;;;;;;;5043314;28;20033;-66
2022/03/08 00:03:45;;;;;;;21.17;13.73;;;;;;;;;;5044561;28;20028;-64
2022/03/08 00:06:11;;;;;;;17.80;13.90;;;;;;;;;;5043996;28;20399;-66
2022/03/08 00:08:36;;;;;;;17.33;13.18;;;;;;;;;;5044131;28;20021;-65
2022/03/08 00:11:03;;;;;;;17.10;12.27;;;;;;;;;;5042152;28;20395;-65
2022/03/08 00:13:28;;;;;;;18.10;13.43;;;;;;;;;;5051754;28;20062;-65
2022/03/08 00:15:53;;;;;;;16.58;13.00;;;;;;;;;;5064040;28;20500;-65
2022/03/08 00:18:19;;;;;;;18.17;14.38;;;;;;;;;;5068126;28;20017;-65
2022/03/08 00:20:44;;;;;;;18.35;13.93;;;;;;;;;;5068739;28;20032;-65
2022/03/08 00:23:10;;;;;;;16.55;13.38;;;;;;;;;;5068163;28;20174;-65
2022/03/08 00:25:35;;;;;;;17.73;13.52;;;;;;;;;;5064488;28;20522;-65
2022/03/08 00:28:01;;;;;;;17.27;13.32;;;;;;;;;;5047705;28;20487;-66
2022/03/08 00:30:27;;;;;;;17.40;13.70;;;;;;;;;;5046571;28;20147;-65
2022/03/08 00:32:52;;;;;;;19.80;14.40;;;;;;;;;;5047522;28;20476;-65
2022/03/08 00:35:17;;;;;;;16.38;13.13;;;;;;;;;;5047157;28;20036;-64
2022/03/08 00:37:43;;;;;;;16.60;13.30;;;;;;;;;;5046581;28;20025;-66
2022/03/08 00:40:10;;;;;;;18.08;13.85;;;;;;;;;;5059660;28;20032;-65
2022/03/08 00:42:35;;;;;;;18.55;13.70;;;;;;;;;;5042562;28;20037;-64
2022/03/08 00:45:00;;;;;;;17.98;13.70;;;;;;;;;;5067009;28;20036;-65
2022/03/08 00:47:26;;;;;;;17.02;13.10;;;;;;;;;;5066503;28;20031;-64
2022/03/08 00:49:51;;;;;;;18.00;13.52;;;;;;;;;;5067486;28;20017;-65
2022/03/08 00:52:17;;;;;;;18.08;13.55;;;;;;;;;;5064929;28;20383;-65
2022/03/08 00:54:42;;;;;;;18.38;13.50;;;;;;;;;;5066726;28;20059;-66
2022/03/08 00:57:07;;;;;;;18.13;13.43;;;;;;;;;;5059042;28;20113;-64
2022/03/08 00:59:32;;;;;;;16.30;12.82;;;;;;;;;;5064181;28;20292;-65
2022/03/08 01:01:58;;;;;;;17.38;13.63;;;;;;;;;;5065049;28;20043;-65
2022/03/08 01:04:23;;;;;;;17.33;13.68;;;;;;;;;;5066276;28;20031;-65
2022/03/08 01:06:48;;;;;;;17.02;13.50;;;;;;;;;;5066225;28;20455;-64
2022/03/08 01:09:14;;;;;;;16.65;12.68;;;;;;;;;;5064810;28;20032;-64
2022/03/08 01:11:41;;;;;;;16.80;12.95;;;;;;;;;;5060812;28;20523;-64
2022/03/08 01:14:07;;;;;;;16.23;13.10;;;;;;;;;;5065123;28;20017;-65
2022/03/08 01:16:33;;;;;;;16.08;12.95;;;;;;;;;;5063815;28;20507;-64
2022/03/08 01:18:58;;;;;;;15.98;13.32;;;;;;;;;;5066533;28;20032;-66
2022/03/08 01:21:24;;;;;;;18.30;13.10;;;;;;;;;;5065916;28;20021;-66
2022/03/08 01:23:50;;;;;;;18.17;13.02;;;;;;;;;;5065694;28;20085;-64
2022/03/08 01:26:16;;;;;;;15.73;13.00;;;;;;;;;;5046500;28;20040;-65
2022/03/08 01:28:42;;;;;;;16.33;13.18;;;;;;;;;;5044274;28;20123;-65
2022/03/08 01:31:07;;;;;;;17.25;12.05;;;;;;;;;;5067552;28;20116;-64
2022/03/08 01:33:33;;;;;;;20.83;12.50;;;;;;;;;;5064287;28;20525;-64
2022/03/08 01:35:58;;;;;;;14.90;11.98;;;;;;;;;;5066147;28;20395;-65
2022/03/08 01:38:23;;;;;;;15.98;12.30;;;;;;;;;;5065242;28;20028;-64
2022/03/08 01:40:49;;;;;;;17.35;12.80;;;;;;;;;;5064358;28;20094;-64
2022/03/08 01:43:14;;;;;;;16.02;11.82;;;;;;;;;;5062920;28;20463;-64
2022/03/08 01:45:40;;;;;;;15.05;11.43;;;;;;;;;;5047266;28;20147;-65
2022/03/08 01:48:05;;;;;;;16.13;11.85;;;;;;;;;;5066481;28;20099;-65
2022/03/08 01:50:31;;;;;;;15.57;12.45;;;;;;;;;;5065054;28;20056;-65
2022/03/08 01:52:56;;;;;;;17.73;12.48;;;;;;;;;;5064218;28;20100;-65
2022/03/08 01:55:22;;;;;;;16.42;11.65;;;;;;;;;;5064901;28;20033;-64
2022/03/08 01:57:49;;;;;;;14.70;11.27;;;;;;;;;;5059272;28;20173;-65
2022/03/08 02:00:16;;;;;;;16.55;11.27;;;;;;;;;;5066471;28;20024;-64
2022/03/08 02:02:42;;;;;;;13.30;11.02;;;;;;;;;;5046561;28;20035;-65
2022/03/08 02:05:07;;;;;;;13.57;11.00;;;;;;;;;;5066257;28;20028;-66
2022/03/08 02:07:32;;;;;;;16.65;11.88;;;;;;;;;;5063650;28;20031;-65
2022/03/08 02:09:58;;;;;;;13.38;10.98;;;;;;;;;;5065184;28;20028;-65
2022/03/08 02:12:23;;;;;;;13.38;11.07;;;;;;;;;;5058521;28;20605;-65
2022/03/08 02:14:49;;;;;;;14.07;11.15;;;;;;;;;;5065930;28;20481;-64
2022/03/08 02:17:14;;;;;;;15.27;11.13;;;;;;;;;;5063539;28;20115;-65
2022/03/08 02:19:40;;;;;;;12.68;10.88;;;;;;;;;;5065048;28;20303;-65
2022/03/08 02:22:05;;;;;;;14.43;10.55;;;;;;;;;;5064642;28;20032;-65
2022/03/08 02:24:30;;;;;;;13.35;10.07;;;;;;;;;;5064053;28;20028;-65
2022/03/08 02:26:56;;;;;;;10.73;9.32;;;;;;;;;;5060451;28;20040;-65
2022/03/08 02:29:22;;;;;;;12.75;9.40;;;;;;;;;;5046310;28;20173;-65
2022/03/08 02:31:47;;;;;;;12.20;9.70;;;;;;;;;;5046801;28;20146;-65
2022/03/08 02:34:13;;;;;;;10.52;8.90;;;;;;;;;;5065017;28;20084;-65
2022/03/08 02:36:38;;;;;;;12.25;10.40;;;;;;;;;;5063709;28;20194;-65
2022/03/08 02:39:04;;;;;;;10.07;8.85;;;;;;;;;;5064774;28;20025;-65
2022/03/08 02:41:29;;;;;;;11.55;8.95;;;;;;;;;;5051174;28;20025;-64
2022/03/08 02:43:54;;;;;;;12.00;9.43;;;;;;;;;;5042564;28;20546;-66
2022/03/08 02:46:20;;;;;;;11.18;9.15;;;;;;;;;;5044164;28;20417;-64
2022/03/08 02:48:45;;;;;;;12.40;8.45;;;;;;;;;;5042767;28;20033;-64
2022/03/08 02:51:12;;;;;;;11.93;8.95;;;;;;;;;;5045157;28;20080;-64
2022/03/08 02:53:37;;;;;;;11.20;8.98;;;;;;;;;;5045007;28;20068;-65
2022/03/08 02:56:03;;;;;;;9.85;8.43;;;;;;;;;;5044185;28;20071;-64
2022/03/08 02:58:28;;;;;;;10.80;9.00;;;;;;;;;;5044132;28;20029;-65
2022/03/08 03:00:53;;;;;;;10.15;8.68;;;;;;;;;;5066372;28;20042;-64
2022/03/08 03:03:18;;;;;;;11.25;9.35;;;;;;;;;;5064954;28;20082;-64
2022/03/08 03:05:44;;;;;;;10.35;8.43;;;;;;;;;;5064686;28;20033;-65
2022/03/08 03:08:09;;;;;;;12.30;8.95;;;;;;;;;;5065400;28;20358;-64
2022/03/08 03:10:35;;;;;;;10.43;8.98;;;;;;;;;;5062600;28;20324;-67
2022/03/08 03:13:00;;;;;;;11.18;9.05;;;;;;;;;;5062260;28;20500;-64
2022/03/08 03:15:27;;;;;;;13.27;9.10;;;;;;;;;;5064512;28;20123;-65
2022/03/08 03:17:52;;;;;;;12.05;9.38;;;;;;;;;;5064509;28;20028;-64
2022/03/08 03:20:19;;;;;;;10.90;8.75;;;;;;;;;;5064205;28;20027;-65
2022/03/08 03:22:45;;;;;;;10.48;8.98;;;;;;;;;;5064375;28;20156;-65
2022/03/08 03:25:11;;;;;;;12.70;8.43;;;;;;;;;;5065657;28;20147;-65
2022/03/08 03:27:36;;;;;;;11.68;8.63;;;;;;;;;;5058865;28;20467;-65
2022/03/08 03:30:03;;;;;;;12.07;9.13;;;;;;;;;;5065597;28;20051;-65
2022/03/08 03:32:29;;;;;;;11.82;8.88;;;;;;;;;;5061736;28;20047;-65
2022/03/08 03:34:54;;;;;;;12.30;8.43;;;;;;;;;;5053158;28;20460;-65
2022/03/08 03:37:20;;;;;;;11.60;8.82;;;;;;;;;;5044019;28;20127;-64
2022/03/08 03:39:45;;;;;;;10.60;8.48;;;;;;;;;;5042646;28;20051;-64
2022/03/08 03:42:11;;;;;;;10.73;8.38;;;;;;;;;;5021148;28;20605;-64
2022/03/08 03:44:36;;;;;;;11.10;8.82;;;;;;;;;;5040729;28;20074;-64
2022/03/08 03:47:01;;;;;;;11.23;8.10;;;;;;;;;;5044327;28;20035;-64
2022/03/08 03:49:27;;;;;;;13.00;8.88;;;;;;;;;;5047819;28;20024;-64
2022/03/08 03:51:53;;;;;;;12.95;8.73;;;;;;;;;;5042074;28;20021;-64
2022/03/08 03:54:19;;;;;;;14.63;9.02;;;;;;;;;;5044134;28;20031;-64
2022/03/08 03:56:44;;;;;;;10.18;8.23;;;;;;;;;;5039485;28;20025;-65
2022/03/08 03:59:10;;;;;;;12.45;8.70;;;;;;;;;;5042485;28;20033;-65
2022/03/08 04:01:35;;;;;;;10.27;9.02;;;;;;;;;;5043457;28;20021;-65
2022/03/08 04:04:00;;;;;;;9.85;8.07;;;;;;;;;;5046234;28;20051;-65
2022/03/08 04:06:26;;;;;;;9.45;8.00;;;;;;;;;;5045590;28;20386;-64
2022/03/08 04:08:51;;;;;;;10.00;8.40;;;;;;;;;;5040692;28;20376;-64
2022/03/08 04:11:18;;;;;;;10.23;8.52;;;;;;;;;;5048980;28;20031;-64
2022/03/08 04:13:43;;;;;;;9.48;7.80;;;;;;;;;;5054739;28;20029;-64
2022/03/08 04:16:10;;;;;;;9.93;7.93;;;;;;;;;;5046354;28;20025;-64
2022/03/08 04:18:35;;;;;;;9.80;8.07;;;;;;;;;;5046022;28;20037;-64
2022/03/08 04:21:00;;;;;;;10.05;8.32;;;;;;;;;;5044092;28;20396;-64
2022/03/08 04:23:26;;;;;;;10.95;8.10;;;;;;;;;;5043261;28;20511;-64
2022/03/08 04:25:51;;;;;;;13.50;8.82;;;;;;;;;;5028013;28;20039;-65
2022/03/08 04:28:17;;;;;;;10.75;8.48;;;;;;;;;;5040176;28;20033;-65
2022/03/08 04:30:42;;;;;;;10.88;8.90;;;;;;;;;;5042171;28;20032;-66
2022/03/08 04:33:07;;;;;;;12.23;8.73;;;;;;;;;;5041369;28;20779;-65
2022/03/08 04:35:32;;;;;;;13.02;9.15;;;;;;;;;;5041622;28;20017;-64
2022/03/08 04:37:58;;;;;;;12.00;9.20;;;;;;;;;;5043380;28;20483;-65
2022/03/08 04:40:24;;;;;;;13.73;9.27;;;;;;;;;;5044074;28;20238;-65
2022/03/08 04:42:49;;;;;;;12.82;9.07;;;;;;;;;;5055071;28;20399;-64
2022/03/08 04:45:15;;;;;;;11.80;8.98;;;;;;;;;;5064329;28;20564;-65
2022/03/08 04:47:40;;;;;;;10.60;8.77;;;;;;;;;;5062355;28;20021;-65
2022/03/08 04:50:06;;;;;;;10.40;8.95;;;;;;;;;;5065439;28;20037;-64
2022/03/08 04:52:32;;;;;;;12.38;9.70;;;;;;;;;;5060878;28;20111;-65
2022/03/08 04:54:57;;;;;;;10.13;7.82;;;;;;;;;;5062606;28;20104;-65
2022/03/08 04:57:22;;;;;;;10.48;8.38;;;;;;;;;;5057782;28;20135;-65
2022/03/08 04:59:48;;;;;;;13.00;9.10;;;;;;;;;;5062706;28;20082;-65
2022/03/08 05:02:13;;;;;;;11.55;9.18;;;;;;;;;;5063133;28;20095;-66
2022/03/08 05:04:38;;;;;;;11.40;8.93;;;;;;;;;;5068268;28;20012;-65
2022/03/08 05:07:03;;;;;;;11.15;8.70;;;;;;;;;;5069175;28;20043;-65
2022/03/08 05:09:29;;;;;;;11.52;8.90;;;;;;;;;;5071086;28;20024;-65
2022/03/08 05:11:55;;;;;;;12.55;8.73;;;;;;;;;;5069601;28;20020;-65
2022/03/08 05:14:20;;;;;;;11.13;8.52;;;;;;;;;;5066791;28;20078;-65
2022/03/08 05:16:46;;;;;;;10.25;8.68;;;;;;;;;;5048039;28;20016;-65
2022/03/08 05:19:11;;;;;;;10.27;8.80;;;;;;;;;;5064516;28;20085;-65
2022/03/08 05:21:36;;;;;;;10.98;9.35;;;;;;;;;;5063211;28;20304;-65
2022/03/08 05:24:02;;;;;;;11.15;8.95;;;;;;;;;;5066973;28;20020;-64
2022/03/08 05:26:27;;;;;;;10.90;8.73;;;;;;;;;;5062549;28;20505;-64
2022/03/08 05:28:52;;;;;;;12.90;9.35;;;;;;;;;;5064019;28;20028;-64
2022/03/08 05:31:17;;;;;;;11.88;8.80;;;;;;;;;;5064852;28;20024;-65
2022/03/08 05:33:43;;;;;;;12.90;8.45;;;;;;;;;;5063177;28;20040;-64
2022/03/08 05:36:08;;;;;;;12.13;8.85;;;;;;;;;;5065877;28;20020;-65
2022/03/08 05:38:34;;;;;;;11.20;8.85;;;;;;;;;;5065240;28;20293;-64
2022/03/08 05:41:00;;;;;;;12.20;9.57;;;;;;;;;;5063326;28;20190;-65
2022/03/08 05:43:25;;;;;;;13.38;9.90;;;;;;;;;;5051861;28;20559;-65
2022/03/08 05:45:51;;;;;;;11.95;9.40;;;;;;;;;;5044906;28;20405;-63
2022/03/08 05:48:16;;;;;;;12.73;9.15;;;;;;;;;;5045341;28;20033;-64
2022/03/08 05:50:41;;;;;;;11.73;9.50;;;;;;;;;;5044891;28;20061;-64
2022/03/08 05:53:06;;;;;;;11.05;9.02;;;;;;;;;;5045054;28;20225;-65
2022/03/08 05:55:32;;;;;;;11.60;8.60;;;;;;;;;;5041437;28;20023;-64
2022/03/08 05:57:57;;;;;;;12.73;9.23;;;;;;;;;;5038200;28;20518;-64
2022/03/08 06:00:22;;;;;;;12.35;9.93;;;;;;;;;;5044156;28;20059;-64
2022/03/08 06:02:48;;;;;;;10.40;8.90;;;;;;;;;;5043440;28;20075;-65
2022/03/08 06:05:13;;;;;;;13.73;9.52;;;;;;;;;;5027400;28;20036;-64
2022/03/08 06:07:39;;;;;;;12.38;10.18;;;;;;;;;;5042372;28;20021;-64
2022/03/08 06:10:07;;;;;;;11.00;9.75;;;;;;;;;;5040874;28;20035;-65
2022/03/08 06:12:32;;;;;;;11.82;9.52;;;;;;;;;;5037294;28;20051;-64
2022/03/08 06:14:57;;;;;;;13.13;10.20;;;;;;;;;;5041966;28;20662;-64
2022/03/08 06:17:22;;;;;;;13.65;9.27;;;;;;;;;;5041663;28;20452;-64
2022/03/08 06:19:48;;;;;;;13.48;9.60;;;;;;;;;;5043433;28;20560;-64
2022/03/08 06:22:13;;;;;;;10.30;8.82;;;;;;;;;;5043502;28;20070;-65
2022/03/08 06:24:41;;;;;;;12.05;9.20;;;;;;;;;;5044364;28;20098;-64
2022/03/08 06:27:07;;;;;;;11.95;9.82;;;;;;;;;;5036298;28;20096;-64
2022/03/08 06:29:32;;;;;;;12.15;9.60;;;;;;;;;;5044220;28;20108;-65
2022/03/08 06:31:57;;;;;;;14.57;10.10;;;;;;;;;;5041227;28;20211;-65
2022/03/08 06:34:23;;;;;;;14.65;9.88;;;;;;;;;;5045050;28;20480;-65
2022/03/08 06:36:49;;;;;;;11.85;9.38;;;;;;;;;;5044775;28;20029;-65
2022/03/08 06:39:14;;;;;;;11.75;9.40;;;;;;;;;;5044632;28;20025;-65
2022/03/08 06:41:40;;;;;;;11.48;9.60;;;;;;;;;;5040041;28;20029;-65
2022/03/08 06:44:06;;;;;;;13.52;9.82;;;;;;;;;;5024576;28;20057;-65
2022/03/08 06:46:31;;;;;;;13.57;9.52;;;;;;;;;;5045387;28;20037;-65
2022/03/08 06:48:56;;;;;;;11.45;9.15;;;;;;;;;;5044447;28;20036;-65
2022/03/08 06:51:22;;;;;;;15.27;9.73;;;;;;;;;;5045391;28;20031;-65
2022/03/08 06:53:47;;;;;;;13.30;9.85;;;;;;;;;;5030023;28;20029;-65
2022/03/08 06:56:12;;;;;;;13.10;9.35;;;;;;;;;;5043290;28;20021;-65
2022/03/08 06:58:38;;;;;;;13.52;9.80;;;;;;;;;;5042142;28;20021;-65
2022/03/08 07:01:03;;;;;;;17.08;9.07;;;;;;;;;;5043992;28;20029;-66
2022/03/08 07:03:28;;;;;;;12.82;9.90;;;;;;;;;;5044070;28;20048;-65
2022/03/08 07:05:54;;;;;;;14.07;9.90;;;;;;;;;;5043246;28;20052;-65
2022/03/08 07:08:19;;;;;;;11.40;8.85;;;;;;;;;;5045358;28;20076;-65
2022/03/08 07:10:44;;;;;;;14.18;10.27;;;;;;;;;;5055124;28;20453;-65
2022/03/08 07:13:09;;;;;;;11.73;9.68;;;;;;;;;;5061147;28;20588;-66
2022/03/08 07:15:35;;;;;;;11.35;9.00;;;;;;;;;;5064062;28;20029;-65
2022/03/08 07:18:00;;;;;;;11.07;8.88;;;;;;;;;;5063548;28;20804;-66
2022/03/08 07:20:25;;;;;;;16.33;9.43;;;;;;;;;;5064693;28;20392;-64
2022/03/08 07:22:51;;;;;;;13.52;9.95;;;;;;;;;;5064011;28;20063;-64
2022/03/08 07:25:16;;;;;;;12.10;9.32;;;;;;;;;;5064194;28;20021;-66
2022/03/08 07:27:43;;;;;;;10.45;8.88;;;;;;;;;;5055994;28;20436;-65
2022/03/08 07:30:09;;;;;;;13.43;9.60;;;;;;;;;;5062284;28;20021;-65
2022/03/08 07:32:35;;;;;;;10.63;8.98;;;;;;;;;;5064122;28;20039;-65
2022/03/08 07:35:00;;;;;;;10.43;8.73;;;;;;;;;;5064507;28;20026;-65
2022/03/08 07:37:25;;;;;;;13.00;10.00;;;;;;;;;;5068824;28;20471;-64
2022/03/08 07:39:51;;;;;;;13.70;9.05;;;;;;;;;;5064953;28;20028;-66
2022/03/08 07:42:16;;;;;;;10.85;8.63;;;;;;;;;;5057862;28;20028;-65
2022/03/08 07:44:42;;;;;;;11.50;8.98;;;;;;;;;;5047470;28;20462;-65
2022/03/08 07:47:08;;;;;;;10.60;9.02;;;;;;;;;;5061715;28;20444;-65
2022/03/08 07:49:34;;;;;;;11.93;9.55;;;;;;;;;;5064276;28;20094;-64
2022/03/08 07:51:59;;;;;;;12.13;9.50;;;;;;;;;;5065490;28;20467;-65
2022/03/08 07:54:24;;;;;;;11.57;9.45;;;;;;;;;;5064287;28;20196;-66
2022/03/08 07:56:53;;;;;;;13.07;10.25;;;;;;;;;;5058265;28;20104;-65
2022/03/08 07:59:19;;;;;;;13.40;9.65;;;;;;;;;;5045406;28;20031;-65
2022/03/08 08:01:44;;;;;;;11.88;9.73;;;;;;;;;;5063762;28;20017;-66
2022/03/08 08:04:10;;;;;;;11.45;9.05;;;;;;;;;;5043959;28;20533;-66
2022/03/08 08:06:35;;;;;;;10.13;9.00;;;;;;;;;;5061713;28;20036;-66
2022/03/08 08:09:00;;;;;;;12.80;8.77;;;;;;;;;;5062472;28;20375;-65
2022/03/08 08:11:26;;;;;;;12.05;9.18;;;;;;;;;;5062767;28;20131;-65
2022/03/08 08:13:53;;;;;;;9.95;8.95;;;;;;;;;;5058923;28;20111;-66
2022/03/08 08:16:18;;;;;;;10.50;9.10;;;;;;;;;;5061902;28;20025;-66
2022/03/08 08:18:43;;;;;;;9.95;8.95;;;;;;;;;;5063476;28;20028;-66
2022/03/08 08:21:09;;;;;;;10.10;8.80;;;;;;;;;;5062535;28;20270;-66
2022/03/08 08:23:34;;;;;;;10.48;8.75;;;;;;;;;;5062664;28;20032;-66
2022/03/08 08:25:59;;;;;;;9.93;8.93;;;;;;;;;;5061166;28;20027;-66
2022/03/08 08:28:25;;;;;;;9.60;8.23;;;;;;;;;;5060800;28;20031;-67
2022/03/08 08:30:50;;;;;;;11.27;9.40;;;;;;;;;;5060528;28;20035;-66
2022/03/08 08:33:16;;;;;;;11.25;9.05;;;;;;;;;;5062698;28;20109;-65
2022/03/08 08:35:41;;;;;;;12.23;9.43;;;;;;;;;;5062613;28;20450;-65
2022/03/08 08:38:07;;;;;;;10.88;8.88;;;;;;;;;;5063461;28;20024;-65
2022/03/08 08:40:34;;;;;;;11.05;8.88;;;;;;;;;;5065118;28;20016;-65
2022/03/08 08:43:00;;;;;;;10.45;8.75;;;;;;;;;;5062604;28;20040;-66
2022/03/08 08:45:25;;;;;;;10.38;9.27;;;;;;;;;;5068567;28;20021;-66
2022/03/08 08:47:51;;;;;;;10.15;8.75;;;;;;;;;;5065799;28;20039;-65
2022/03/08 08:50:16;;;;;;;10.52;9.35;;;;;;;;;;5050773;28;20047;-66
2022/03/08 08:52:42;;;;;;;9.60;8.57;;;;;;;;;;5067777;28;20111;-66
2022/03/08 08:55:07;;;;;;;10.57;8.85;;;;;;;;;;5064621;28;20021;-66
2022/03/08 08:57:33;;;;;;;11.55;8.32;;;;;;;;;;5061894;28;20023;-66
2022/03/08 08:59:58;;;;;;;10.43;8.43;;;;;;;;;;5064091;28;20047;-66
2022/03/08 09:02:24;;;;;;;9.95;8.88;;;;;;;;;;5064977;28;20138;-66
2022/03/08 09:04:53;;;;;;;9.82;8.82;;;;;;;;;;5066478;28;20102;-66
2022/03/08 09:07:18;;;;;;;11.98;9.23;;;;;;;;;;5047259;28;20074;-65
2022/03/08 09:09:43;;;;;;;9.82;8.85;;;;;;;;;;5066591;28;20013;-66
2022/03/08 09:12:08;;;;;;;12.55;8.85;;;;;;;;;;5068342;28;20024;-65
2022/03/08 09:14:34;;;;;;;10.50;9.30;;;;;;;;;;5070852;28;20074;-65
2022/03/08 09:16:59;;;;;;;11.38;9.10;;;;;;;;;;5065463;28;20415;-65
2022/03/08 09:19:25;;;;;;;11.80;8.68;;;;;;;;;;5046304;28;20174;-67
2022/03/08 09:21:51;;;;;;;10.50;9.13;;;;;;;;;;5044542;28;20452;-64
2022/03/08 09:24:16;;;;;;;10.80;9.43;;;;;;;;;;5043983;28;20029;-65
2022/03/08 09:26:42;;;;;;;10.30;9.20;;;;;;;;;;5040460;28;20039;-65
2022/03/08 09:29:08;;;;;;;11.70;9.05;;;;;;;;;;5043585;28;20083;-65
2022/03/08 09:31:33;;;;;;;10.02;9.02;;;;;;;;;;5045542;28;20041;-65
2022/03/08 09:33:58;;;;;;;11.10;8.25;;;;;;;;;;5048273;28;20074;-65
2022/03/08 09:36:23;;;;;;;10.13;8.85;;;;;;;;;;5045885;28;20166;-66
2022/03/08 09:38:49;;;;;;;10.57;9.45;;;;;;;;;;5044558;28;20025;-67
2022/03/08 09:41:14;;;;;;;10.00;9.00;;;;;;;;;;5042669;28;20453;-66
2022/03/08 09:43:40;;;;;;;10.50;9.00;;;;;;;;;;5051063;28;20750;-66
2022/03/08 09:46:05;;;;;;;10.27;9.25;;;;;;;;;;5048441;28;20445;-67
2022/03/08 09:48:31;;;;;;;11.65;9.10;;;;;;;;;;5026501;28;20088;-67
2022/03/08 09:50:58;;;;;;;11.77;8.65;;;;;;;;;;5044427;28;20081;-66
2022/03/08 09:53:24;;;;;;;10.85;9.75;;;;;;;;;;5044652;28;20522;-66
2022/03/08 09:55:49;;;;;;;10.93;9.02;;;;;;;;;;5044547;28;20021;-66
2022/03/08 09:58:14;;;;;;;10.05;9.05;;;;;;;;;;5057352;28;20493;-66
2022/03/08 10:00:39;;;;;;;9.40;8.50;;;;;;;;;;5066546;28;20060;-65
2022/03/08 10:03:09;;;;;;;14.00;9.63;;;;;;;;;;5063541;28;20283;-66
2022/03/08 10:05:39;;;;;;;11.60;9.38;;;;;;;;;;5064073;28;20124;-66
2022/03/08 10:08:10;;;;;;;10.98;9.10;;;;;;;;;;5063840;28;20497;-65
2022/03/08 10:10:49;;;;;;;9.00;8.07;;;;;;;;;;5062306;28;20035;-65
2022/03/08 10:13:14;;;;;;;10.20;9.20;;;;;;;;;;5059929;28;20541;-66
2022/03/08 10:15:40;;;;;;;9.52;8.23;;;;;;;;;;5063925;28;20024;-66
2022/03/08 10:18:06;;;;;;;11.30;8.50;;;;;;;;;;5062273;28;20024;-66
2022/03/08 10:20:32;;;;;;;10.35;8.35;;;;;;;;;;5063481;28;20112;-67
2022/03/08 10:22:58;;;;;;;9.23;8.25;;;;;;;;;;5064307;28;20095;-67
2022/03/08 10:25:25;;;;;;;8.68;7.88;;;;;;;;;;5046240;28;20597;-67
2022/03/08 10:27:54;;;;;;;9.05;8.18;;;;;;;;;;5058748;28;20066;-64
2022/03/08 10:30:20;;;;;;;11.82;8.18;;;;;;;;;;5063983;28;20021;-66
2022/03/08 10:32:46;;;;;;;10.48;8.18;;;;;;;;;;5063112;28;20033;-66
2022/03/08 10:35:21;;;;;;;9.20;8.40;;;;;;;;;;5054730;28;20051;-66
2022/03/08 10:37:46;;;;;;;10.25;8.65;;;;;;;;;;5042887;28;20102;-65
2022/03/08 10:40:13;;;;;;;12.18;8.52;;;;;;;;;;5044742;28;20543;-65
2022/03/08 10:42:39;;;;;;;10.48;8.18;;;;;;;;;;5043506;28;20052;-67
2022/03/08 10:45:06;;;;;;;9.30;8.00;;;;;;;;;;5062802;28;20033;-65
2022/03/08 10:47:39;;;;;;;10.52;8.57;;;;;;;;;;5063263;28;20029;-66
2022/03/08 10:50:05;;;;;;;9.20;8.25;;;;;;;;;;5061126;28;20502;-66
2022/03/08 10:52:31;;;;;;;11.57;8.45;;;;;;;;;;5063598;28;20467;-66
2022/03/08 10:55:10;;;;;;;8.80;7.95;;;;;;;;;;5062586;28;20020;-65
2022/03/08 10:57:36;;;;;;;9.75;8.50;;;;;;;;;;5059014;28;20111;-66
2022/03/08 11:00:09;;;;;;;9.38;8.20;;;;;;;;;;5061966;28;20161;-65
2022/03/08 11:02:35;;;;;;;9.18;8.32;;;;;;;;;;5062370;28;20285;-65
2022/03/08 11:05:10;;;;;;;9.55;8.52;;;;;;;;;;5063588;28;20115;-66
2022/03/08 11:07:36;;;;;;;11.23;8.63;;;;;;;;;;5063643;28;20134;-66
2022/03/08 11:10:02;;;;;;;9.27;8.27;;;;;;;;;;5062070;28;20050;-65
2022/03/08 11:12:28;;;;;;;9.60;8.70;;;;;;;;;;5055234;28;20078;-66
2022/03/08 11:14:53;;;;;;;11.32;8.45;;;;;;;;;;5063444;28;20025;-67
2022/03/08 11:17:18;;;;;;;9.30;8.25;;;;;;;;;;5060100;28;20415;-67
2022/03/08 11:19:44;;;;;;;14.00;8.02;;;;;;;;;;5062936;28;20509;-66
2022/03/08 11:22:10;;;;;;;8.55;7.63;;;;;;;;;;5061531;28;20325;-66
2022/03/08 11:24:36;;;;;;;8.52;7.63;;;;;;;;;;5061801;28;20031;-66
2022/03/08 11:27:02;;;;;;;9.60;8.52;;;;;;;;;;5056270;28;20024;-66
2022/03/08 11:29:28;;;;;;;8.95;7.97;;;;;;;;;;5061532;28;20017;-66
2022/03/08 11:31:55;;;;;;;8.32;7.53;;;;;;;;;;5045239;28;20033;-67
2022/03/08 11:34:33;;;;;;;8.77;7.78;;;;;;;;;;5057030;28;20036;-66
2022/03/08 11:37:00;;;;;;;8.85;7.65;;;;;;;;;;5061855;28;20375;-66
2022/03/08 11:39:27;;;;;;;8.63;7.68;;;;;;;;;;5060876;28;20036;-66
2022/03/08 11:41:54;;;;;;;10.77;7.95;;;;;;;;;;5057490;28;20434;-66
2022/03/08 11:44:23;;;;;;;8.27;7.45;;;;;;;;;;5058670;28;20368;-64
2022/03/08 11:47:05;;;;;;;8.65;7.38;;;;;;;;;;5062197;28;20017;-65
2022/03/08 11:49:45;;;;;;;9.75;7.95;;;;;;;;;;5060525;28;20028;-66
2022/03/08 11:52:33;;;;;;;9.07;7.55;;;;;;;;;;5060000;28;20245;-65
2022/03/08 11:55:06;;;;;;;10.90;7.88;;;;;;;;;;5062137;28;20017;-66
2022/03/08 11:57:44;;;;;;;8.73;7.82;;;;;;;;;;5035655;28;20021;-66
2022/03/08 12:00:18;;;;;;;8.70;7.85;;;;;;;;;;5040209;28;20100;-66
2022/03/08 12:02:48;;;;;;;8.75;7.75;;;;;;;;;;5039252;28;20099;-66
2022/03/08 12:05:31;;;;;;;8.50;7.57;;;;;;;;;;5041252;28;20094;-66
2022/03/08 12:07:57;;;;;;;9.75;7.55;;;;;;;;;;5041349;28;20391;-67
2022/03/08 12:10:26;;;;;;;10.45;7.80;;;;;;;;;;5040823;28;20029;-65
2022/03/08 12:12:53;;;;;;;8.32;7.57;;;;;;;;;;5022105;28;20047;-66
2022/03/08 12:15:18;;;;;;;8.82;7.80;;;;;;;;;;5045451;28;20018;-66
2022/03/08 12:18:07;;;;;;;8.98;7.45;;;;;;;;;;5045327;28;20032;-66
2022/03/08 12:20:32;;;;;;;9.57;7.78;;;;;;;;;;5045081;28;20036;-67
2022/03/08 12:23:09;;;;;;;9.88;7.78;;;;;;;;;;5045184;28;20029;-66
2022/03/08 12:25:34;;;;;;;11.15;7.95;;;;;;;;;;5042310;28;20140;-66
2022/03/08 12:27:59;;;;;;;10.73;8.10;;;;;;;;;;5050771;28;20044;-66
2022/03/08 12:30:38;;;;;;;8.75;7.68;;;;;;;;;;5064036;28;20024;-68
2022/03/08 12:33:03;;;;;;;8.45;7.50;;;;;;;;;;5066126;28;20063;-67
2022/03/08 12:35:28;;;;;;;9.07;8.13;;;;;;;;;;5064794;28;20056;-66
2022/03/08 12:38:02;;;;;;;9.55;7.63;;;;;;;;;;5065654;28;20028;-66
2022/03/08 12:40:29;;;;;;;8.48;7.68;;;;;;;;;;5061160;28;20027;-66
2022/03/08 12:43:01;;;;;;;8.50;7.70;;;;;;;;;;5058422;28;20052;-66
2022/03/08 12:45:28;;;;;;;8.15;7.35;;;;;;;;;;5060842;28;20457;-66
2022/03/08 12:47:55;;;;;;;9.68;7.55;;;;;;;;;;5064713;28;20029;-66
2022/03/08 12:50:22;;;;;;;9.13;7.63;;;;;;;;;;5063438;28;20033;-65
2022/03/08 12:52:58;;;;;;;8.68;7.47;;;;;;;;;;5064511;28;20025;-66
2022/03/08 12:55:25;;;;;;;9.95;8.02;;;;;;;;;;5063083;28;20099;-65
2022/03/08 12:57:51;;;;;;;8.38;7.57;;;;;;;;;;5057968;28;20013;-67
2022/03/08 13:00:30;;;;;;;9.75;7.65;;;;;;;;;;5062291;28;20017;-67
2022/03/08 13:02:56;;;;;;;11.68;7.97;;;;;;;;;;5065077;28;20060;-66
2022/03/08 13:05:31;;;;;;;13.00;8.40;;;;;;;;;;5065022;28;20514;-66
2022/03/08 13:07:57;;;;;;;10.55;8.38;;;;;;;;;;5065400;28;20024;-66
2022/03/08 13:10:23;;;;;;;8.38;7.65;;;;;;;;;;5064119;28;20454;-65
2022/03/08 13:12:53;;;;;;;10.18;7.78;;;;;;;;;;5056898;28;20024;-68
2022/03/08 13:15:22;;;;;;;8.20;7.32;;;;;;;;;;5064099;28;20020;-67
2022/03/08 13:17:49;;;;;;;8.80;8.00;;;;;;;;;;5063068;28;20047;-67
2022/03/08 13:20:23;;;;;;;8.63;7.72;;;;;;;;;;5063626;28;20032;-66
2022/03/08 13:22:48;;;;;;;9.40;8.10;;;;;;;;;;5063126;28;20035;-66
2022/03/08 13:25:14;;;;;;;9.40;8.40;;;;;;;;;;5061900;28;20032;-64
2022/03/08 13:27:49;;;;;;;8.55;7.68;;;;;;;;;;5038698;28;20519;-65
2022/03/08 13:30:16;;;;;;;8.65;7.65;;;;;;;;;;5064033;28;20235;-64
2022/03/08 13:32:41;;;;;;;9.15;8.02;;;;;;;;;;5046101;28;20027;-66
2022/03/08 13:35:06;;;;;;;8.75;7.85;;;;;;;;;;5064291;28;20394;-66
2022/03/08 13:37:51;;;;;;;9.02;8.18;;;;;;;;;;5056219;28;20025;-67
2022/03/08 13:40:24;;;;;;;9.95;7.97;;;;;;;;;;5028578;28;20139;-64
2022/03/08 13:42:49;;;;;;;8.07;7.28;;;;;;;;;;5043516;28;20159;-65
2022/03/08 13:45:15;;;;;;;8.23;7.43;;;;;;;;;;5042937;28;20036;-64
2022/03/08 13:47:40;;;;;;;11.15;8.68;;;;;;;;;;5025469;28;20029;-64
2022/03/08 13:50:06;;;;;;;9.88;7.85;;;;;;;;;;5044957;28;20029;-65
2022/03/08 13:52:31;;;;;;;8.73;7.72;;;;;;;;;;5042277;28;20218;-65
2022/03/08 13:54:57;;;;;;;11.35;8.52;;;;;;;;;;5043645;28;20036;-65
2022/03/08 13:57:22;;;;;;;13.05;8.05;;;;;;;;;;5041024;28;20032;-65
2022/03/08 13:59:53;;;;;;;8.80;7.85;;;;;;;;;;5041795;28;20021;-66
2022/03/08 14:02:20;;;;;;;10.15;8.02;;;;;;;;;;5044410;28;20060;-65
2022/03/08 14:04:47;;;;;;;9.35;7.82;;;;;;;;;;5045506;28;20131;-66
2022/03/08 14:07:18;;;;;;;13.95;8.15;;;;;;;;;;5024861;28;20587;-65
2022/03/08 14:09:54;;;;;;;11.68;8.68;;;;;;;;;;5042285;28;20036;-66
2022/03/08 14:12:19;;;;;;;8.63;7.70;;;;;;;;;;5039819;28;20021;-66
2022/03/08 14:15:00;;;;;;;8.65;7.85;;;;;;;;;;5022855;28;20036;-66
2022/03/08 14:17:28;;;;;;;10.00;8.27;;;;;;;;;;5041754;28;20020;-66
2022/03/08 14:19:54;;;;;;;8.80;7.90;;;;;;;;;;5042313;28;20012;-66
2022/03/08 14:22:19;;;;;;;9.13;8.20;;;;;;;;;;5042749;28;20491;-66
2022/03/08 14:24:58;;;;;;;8.98;8.07;;;;;;;;;;5025688;28;20491;-66
2022/03/08 14:27:23;;;;;;;8.82;8.07;;;;;;;;;;5039135;28;20029;-66